sensor_id;sensor_type;location;lat;lon;timestamp;pressure;altitude;pressure_sealevel;temperature;humidity
34983;BME280;21187;50.976;13.720;2023-03-04T00:03:16;98641.31;;;2.55;60.80
34983;BME280;21187;50.976;13.720;2023-03-04T00:08:18;98641.56;;;2.58;60.44
34983;BME280;21187;50.976;13.720;2023-03-04T00:13:20;98642.31;;;2.64;60.48
34983;BME280;21187;50.976;13.720;2023-03-04T00:18:22;98647.88;;;2.67;59.85
34983;BME280;21187;50.976;13.720;2023-03-04T00:23:24;98643.34;;;2.68;60.07
34983;BME280;21187;50.976;13.720;2023-03-04T00:28:26;98636.38;;;2.67;59.86
34983;BME280;21187;50.976;13.720;2023-03-04T00:33:28;98627.84;;;2.65;60.13
34983;BME280;21187;50.976;13.720;2023-03-04T00:38:31;98622.72;;;2.69;59.93
34983;BME280;21187;50.976;13.720;2023-03-04T00:43:32;98622.44;;;2.70;60.26
34983;BME280;21187;50.976;13.720;2023-03-04T00:48:34;98619.22;;;2.73;60.18
34983;BME280;21187;50.976;13.720;2023-03-04T00:53:36;98622.38;;;2.75;59.86
34983;BME280;21187;50.976;13.720;2023-03-04T00:58:38;98610.06;;;2.74;60.02
34983;BME280;21187;50.976;13.720;2023-03-04T01:03:40;98608.72;;;2.77;60.04
34983;BME280;21187;50.976;13.720;2023-03-04T01:08:44;98597.16;;;2.81;60.30
34983;BME280;21187;50.976;13.720;2023-03-04T01:13:45;98594.50;;;2.81;60.26
34983;BME280;21187;50.976;13.720;2023-03-04T01:18:47;98587.41;;;2.91;59.79
34983;BME280;21187;50.976;13.720;2023-03-04T01:23:49;98581.91;;;3.01;59.51
34983;BME280;21187;50.976;13.720;2023-03-04T01:28:51;98578.00;;;3.12;59.23
34983;BME280;21187;50.976;13.720;2023-03-04T01:33:53;98572.66;;;3.12;59.67
34983;BME280;21187;50.976;13.720;2023-03-04T01:38:55;98564.69;;;3.07;59.11
34983;BME280;21187;50.976;13.720;2023-03-04T01:43:59;98543.34;;;3.02;59.58
34983;BME280;21187;50.976;13.720;2023-03-04T01:49:03;98542.28;;;3.03;59.51
34983;BME280;21187;50.976;13.720;2023-03-04T01:54:08;98531.66;;;2.98;59.50
34983;BME280;21187;50.976;13.720;2023-03-04T01:59:13;98529.97;;;3.02;59.37
34983;BME280;21187;50.976;13.720;2023-03-04T02:04:18;98538.75;;;3.08;58.96
34983;BME280;21187;50.976;13.720;2023-03-04T02:09:21;98533.88;;;3.10;58.62
34983;BME280;21187;50.976;13.720;2023-03-04T02:14:23;98532.56;;;3.07;59.23
34983;BME280;21187;50.976;13.720;2023-03-04T02:24:47;98511.25;;;3.02;59.50
34983;BME280;21187;50.976;13.720;2023-03-04T02:29:51;98511.53;;;3.00;59.09
34983;BME280;21187;50.976;13.720;2023-03-04T02:34:53;98509.69;;;3.01;59.44
34983;BME280;21187;50.976;13.720;2023-03-04T02:39:56;98504.31;;;3.01;59.36
34983;BME280;21187;50.976;13.720;2023-03-04T02:44:59;98492.81;;;3.00;59.04
34983;BME280;21187;50.976;13.720;2023-03-04T02:50:02;98495.72;;;3.04;58.78
34983;BME280;21187;50.976;13.720;2023-03-04T02:55:05;98484.00;;;3.00;58.64
34983;BME280;21187;50.976;13.720;2023-03-04T03:00:07;98482.41;;;2.99;59.08
34983;BME280;21187;50.976;13.720;2023-03-04T03:05:10;98473.53;;;3.04;59.01
34983;BME280;21187;50.976;13.720;2023-03-04T03:10:14;98471.13;;;3.02;58.72
34983;BME280;21187;50.976;13.720;2023-03-04T03:15:17;98464.69;;;3.03;59.23
34983;BME280;21187;50.976;13.720;2023-03-04T03:20:19;98471.34;;;3.06;58.69
34983;BME280;21187;50.976;13.720;2023-03-04T03:25:21;98468.94;;;3.04;58.68
34983;BME280;21187;50.976;13.720;2023-03-04T03:30:23;98466.78;;;3.06;58.77
34983;BME280;21187;50.976;13.720;2023-03-04T03:35:25;98468.34;;;3.07;58.86
34983;BME280;21187;50.976;13.720;2023-03-04T03:40:27;98456.72;;;2.98;59.28
34983;BME280;21187;50.976;13.720;2023-03-04T03:45:29;98462.16;;;2.93;59.16
34983;BME280;21187;50.976;13.720;2023-03-04T03:50:31;98452.94;;;2.85;59.08
34983;BME280;21187;50.976;13.720;2023-03-04T03:55:33;98444.69;;;2.81;59.59
34983;BME280;21187;50.976;13.720;2023-03-04T04:00:35;98457.00;;;2.82;59.19
34983;BME280;21187;50.976;13.720;2023-03-04T04:05:37;98455.81;;;2.89;59.36
34983;BME280;21187;50.976;13.720;2023-03-04T04:10:39;98460.59;;;2.92;59.16
34983;BME280;21187;50.976;13.720;2023-03-04T04:15:41;98460.59;;;2.92;58.98
34983;BME280;21187;50.976;13.720;2023-03-04T04:20:43;98464.28;;;2.96;58.92
34983;BME280;21187;50.976;13.720;2023-03-04T04:25:45;98463.69;;;2.99;58.64
34983;BME280;21187;50.976;13.720;2023-03-04T04:30:47;98466.34;;;2.99;59.08
34983;BME280;21187;50.976;13.720;2023-03-04T04:35:49;98465.59;;;3.12;58.12
34983;BME280;21187;50.976;13.720;2023-03-04T04:40:51;98453.13;;;3.22;58.26
34983;BME280;21187;50.976;13.720;2023-03-04T04:45:52;98460.28;;;3.26;57.90
34983;BME280;21187;50.976;13.720;2023-03-04T04:50:55;98449.28;;;3.28;57.78
34983;BME280;21187;50.976;13.720;2023-03-04T04:55:57;98445.16;;;3.36;57.20
34983;BME280;21187;50.976;13.720;2023-03-04T05:00:58;98442.69;;;3.39;57.26
34983;BME280;21187;50.976;13.720;2023-03-04T05:06:01;98443.84;;;3.47;57.44
34983;BME280;21187;50.976;13.720;2023-03-04T05:11:04;98440.41;;;3.46;57.33
34983;BME280;21187;50.976;13.720;2023-03-04T05:16:06;98449.72;;;3.49;57.20
34983;BME280;21187;50.976;13.720;2023-03-04T05:21:08;98446.53;;;3.47;56.89
34983;BME280;21187;50.976;13.720;2023-03-04T05:26:13;98446.31;;;3.29;57.96
34983;BME280;21187;50.976;13.720;2023-03-04T05:31:15;98448.41;;;3.32;57.82
34983;BME280;21187;50.976;13.720;2023-03-04T05:36:20;98452.38;;;3.35;58.08
34983;BME280;21187;50.976;13.720;2023-03-04T05:41:21;98449.19;;;3.33;58.04
34983;BME280;21187;50.976;13.720;2023-03-04T05:46:23;98442.69;;;3.39;57.58
34983;BME280;21187;50.976;13.720;2023-03-04T05:51:26;98437.91;;;3.36;58.06
34983;BME280;21187;50.976;13.720;2023-03-04T05:56:28;98432.53;;;3.36;57.82
34983;BME280;21187;50.976;13.720;2023-03-04T06:01:31;98430.84;;;3.40;57.45
34983;BME280;21187;50.976;13.720;2023-03-04T06:06:32;98427.63;;;3.43;57.87
34983;BME280;21187;50.976;13.720;2023-03-04T06:11:34;98428.91;;;3.46;57.70
34983;BME280;21187;50.976;13.720;2023-03-04T06:16:37;98437.31;;;3.53;57.51
34983;BME280;21187;50.976;13.720;2023-03-04T06:21:38;98429.91;;;3.50;57.69
34983;BME280;21187;50.976;13.720;2023-03-04T06:26:40;98421.88;;;3.50;57.50
34983;BME280;21187;50.976;13.720;2023-03-04T06:31:42;98425.22;;;3.56;57.49
34983;BME280;21187;50.976;13.720;2023-03-04T06:36:44;98430.59;;;3.56;58.12
34983;BME280;21187;50.976;13.720;2023-03-04T06:41:46;98430.19;;;3.62;58.13
34983;BME280;21187;50.976;13.720;2023-03-04T06:46:48;98428.19;;;3.68;57.57
34983;BME280;21187;50.976;13.720;2023-03-04T06:51:50;98429.41;;;3.76;57.83
34983;BME280;21187;50.976;13.720;2023-03-04T06:56:52;98419.50;;;3.76;58.08
34983;BME280;21187;50.976;13.720;2023-03-04T07:01:54;98418.38;;;3.77;58.22
34983;BME280;21187;50.976;13.720;2023-03-04T07:06:56;98422.06;;;3.81;57.76
34983;BME280;21187;50.976;13.720;2023-03-04T07:11:57;98423.47;;;3.79;57.89
34983;BME280;21187;50.976;13.720;2023-03-04T07:16:59;98420.47;;;3.80;58.57
34983;BME280;21187;50.976;13.720;2023-03-04T07:22:01;98418.28;;;3.82;58.57
34983;BME280;21187;50.976;13.720;2023-03-04T07:27:03;98415.81;;;3.86;58.77
34983;BME280;21187;50.976;13.720;2023-03-04T07:32:09;98424.03;;;3.90;59.11
34983;BME280;21187;50.976;13.720;2023-03-04T07:37:11;98420.44;;;3.94;58.62
34983;BME280;21187;50.976;13.720;2023-03-04T07:42:12;98404.09;;;3.96;58.61
34983;BME280;21187;50.976;13.720;2023-03-04T07:47:16;98413.69;;;3.97;58.97
34983;BME280;21187;50.976;13.720;2023-03-04T07:52:18;98409.63;;;3.99;58.75
34983;BME280;21187;50.976;13.720;2023-03-04T07:57:20;98405.56;;;4.02;59.48
34983;BME280;21187;50.976;13.720;2023-03-04T08:02:22;98404.38;;;4.08;58.87
34983;BME280;21187;50.976;13.720;2023-03-04T08:07:23;98405.66;;;4.11;59.55
34983;BME280;21187;50.976;13.720;2023-03-04T08:12:26;98405.03;;;4.14;59.18
34983;BME280;21187;50.976;13.720;2023-03-04T08:17:28;98408.41;;;4.20;59.77
34983;BME280;21187;50.976;13.720;2023-03-04T08:22:30;98402.94;;;4.25;59.63
34983;BME280;21187;50.976;13.720;2023-03-04T08:27:32;98393.25;;;4.38;59.15
34983;BME280;21187;50.976;13.720;2023-03-04T08:32:34;98392.72;;;4.49;59.57
34983;BME280;21187;50.976;13.720;2023-03-04T08:37:36;98389.50;;;4.61;59.75
34983;BME280;21187;50.976;13.720;2023-03-04T08:42:37;98384.16;;;4.61;59.58
34983;BME280;21187;50.976;13.720;2023-03-04T08:47:39;98391.28;;;4.66;59.41
34983;BME280;21187;50.976;13.720;2023-03-04T08:52:41;98391.63;;;4.73;59.53
34983;BME280;21187;50.976;13.720;2023-03-04T08:57:43;98391.53;;;4.78;59.81
34983;BME280;21187;50.976;13.720;2023-03-04T09:02:45;98385.91;;;4.89;59.54
34983;BME280;21187;50.976;13.720;2023-03-04T09:07:46;98393.34;;;4.92;59.34
34983;BME280;21187;50.976;13.720;2023-03-04T09:12:48;98387.22;;;5.00;59.83
34983;BME280;21187;50.976;13.720;2023-03-04T09:17:50;98388.06;;;5.09;59.39
34983;BME280;21187;50.976;13.720;2023-03-04T09:22:52;98394.44;;;5.13;59.43
34983;BME280;21187;50.976;13.720;2023-03-04T09:27:54;98391.00;;;5.22;59.00
34983;BME280;21187;50.976;13.720;2023-03-04T09:32:56;98376.34;;;5.28;59.13
34983;BME280;21187;50.976;13.720;2023-03-04T09:37:58;98387.53;;;5.30;58.90
34983;BME280;21187;50.976;13.720;2023-03-04T09:43:05;98366.41;;;5.37;58.71
34983;BME280;21187;50.976;13.720;2023-03-04T09:48:09;98377.91;;;5.29;58.82
34983;BME280;21187;50.976;13.720;2023-03-04T10:03:27;98358.50;;;5.32;59.17
34983;BME280;21187;50.976;13.720;2023-03-04T10:13:59;98352.38;;;5.40;59.37
34983;BME280;21187;50.976;13.720;2023-03-04T10:24:11;98348.31;;;5.60;58.73
34983;BME280;21187;50.976;13.720;2023-03-04T10:29:16;98340.38;;;5.55;59.00
34983;BME280;21187;50.976;13.720;2023-03-04T10:34:18;98341.19;;;5.64;58.92
34983;BME280;21187;50.976;13.720;2023-03-04T10:39:46;98329.38;;;5.83;58.55
34983;BME280;21187;50.976;13.720;2023-03-04T10:44:55;98329.38;;;5.83;58.91
34983;BME280;21187;50.976;13.720;2023-03-04T10:49:59;98338.25;;;5.83;58.45
34983;BME280;21187;50.976;13.720;2023-03-04T10:55:04;98330.81;;;5.80;58.52
34983;BME280;21187;50.976;13.720;2023-03-04T11:05:20;98326.22;;;5.81;58.58
34983;BME280;21187;50.976;13.720;2023-03-04T11:15:59;98329.09;;;5.93;58.48
34983;BME280;21187;50.976;13.720;2023-03-04T11:21:05;98317.06;;;5.82;58.16
34983;BME280;21187;50.976;13.720;2023-03-04T11:26:13;98319.44;;;5.83;58.34
34983;BME280;21187;50.976;13.720;2023-03-04T11:31:23;98306.63;;;5.89;58.42
34983;BME280;21187;50.976;13.720;2023-03-04T11:41:38;98320.69;;;5.77;58.57
34983;BME280;21187;50.976;13.720;2023-03-04T12:08:39;98300.03;;;6.04;58.46
34983;BME280;21187;50.976;13.720;2023-03-04T12:55:18;98262.50;;;6.34;57.71
34983;BME280;21187;50.976;13.720;2023-03-04T13:00:44;98250.97;;;6.33;57.44
34983;BME280;21187;50.976;13.720;2023-03-04T13:05:54;98258.84;;;6.39;57.47
34983;BME280;21187;50.976;13.720;2023-03-04T13:16:35;98237.97;;;6.44;57.00
34983;BME280;21187;50.976;13.720;2023-03-04T13:21:45;98239.56;;;6.37;57.06
34983;BME280;21187;50.976;13.720;2023-03-04T13:26:48;98244.63;;;6.38;57.20
34983;BME280;21187;50.976;13.720;2023-03-04T13:32:04;98222.13;;;6.52;56.74
34983;BME280;21187;50.976;13.720;2023-03-04T13:37:32;98220.38;;;6.56;56.75
34983;BME280;21187;50.976;13.720;2023-03-04T13:42:42;98220.00;;;6.66;56.07
34983;BME280;21187;50.976;13.720;2023-03-04T13:47:45;98214.47;;;6.71;56.43
34983;BME280;21187;50.976;13.720;2023-03-04T13:52:48;98215.38;;;6.75;55.60
34983;BME280;21187;50.976;13.720;2023-03-04T13:57:50;98219.94;;;6.83;55.30
34983;BME280;21187;50.976;13.720;2023-03-04T14:02:52;98211.19;;;6.95;55.38
34983;BME280;21187;50.976;13.720;2023-03-04T14:07:54;98213.19;;;7.07;55.56
34983;BME280;21187;50.976;13.720;2023-03-04T14:12:56;98208.31;;;7.00;54.77
34983;BME280;21187;50.976;13.720;2023-03-04T14:18:04;98210.41;;;6.95;55.42
34983;BME280;21187;50.976;13.720;2023-03-04T14:28:24;98201.47;;;7.03;55.39
34983;BME280;21187;50.976;13.720;2023-03-04T14:33:28;98194.66;;;7.06;54.94
34983;BME280;21187;50.976;13.720;2023-03-04T14:38:33;98187.38;;;7.06;55.44
34983;BME280;21187;50.976;13.720;2023-03-04T14:44:31;98199.06;;;7.10;55.03
34983;BME280;21187;50.976;13.720;2023-03-04T14:49:13;98180.69;;;7.12;54.58
34983;BME280;21187;50.976;13.720;2023-03-04T14:54:41;98183.66;;;7.20;54.98
34983;BME280;21187;50.976;13.720;2023-03-04T14:59:43;98185.06;;;7.26;54.40
34983;BME280;21187;50.976;13.720;2023-03-04T15:04:46;98180.25;;;7.31;54.82
34983;BME280;21187;50.976;13.720;2023-03-04T15:09:51;98180.41;;;7.35;55.11
34983;BME280;21187;50.976;13.720;2023-03-04T15:15:00;98178.81;;;7.34;55.05
34983;BME280;21187;50.976;13.720;2023-03-04T15:25:11;98185.13;;;7.38;55.05
34983;BME280;21187;50.976;13.720;2023-03-04T15:30:18;98180.59;;;7.30;55.06
34983;BME280;21187;50.976;13.720;2023-03-04T15:35:23;98179.66;;;7.26;55.33
34983;BME280;21187;50.976;13.720;2023-03-04T15:40:29;98180.78;;;7.25;54.70
34983;BME280;21187;50.976;13.720;2023-03-04T15:45:34;98179.66;;;7.26;54.66
34983;BME280;21187;50.976;13.720;2023-03-04T15:50:42;98182.72;;;7.15;54.21
34983;BME280;21187;50.976;13.720;2023-03-04T15:55:45;98188.91;;;7.16;54.43
34983;BME280;21187;50.976;13.720;2023-03-04T16:00:47;98191.78;;;7.11;54.24
34983;BME280;21187;50.976;13.720;2023-03-04T16:05:50;98191.91;;;7.14;53.73
34983;BME280;21187;50.976;13.720;2023-03-04T16:10:52;98193.22;;;7.08;54.26
34983;BME280;21187;50.976;13.720;2023-03-04T16:15:55;98200.84;;;7.06;54.00
34983;BME280;21187;50.976;13.720;2023-03-04T16:20:57;98196.59;;;6.96;54.04
34983;BME280;21187;50.976;13.720;2023-03-04T16:26:00;98184.13;;;6.92;53.79
34983;BME280;21187;50.976;13.720;2023-03-04T16:31:02;98196.50;;;6.93;53.66
34983;BME280;21187;50.976;13.720;2023-03-04T16:36:17;98198.97;;;6.98;53.80
34983;BME280;21187;50.976;13.720;2023-03-04T16:41:26;98199.44;;;7.00;53.85
34983;BME280;21187;50.976;13.720;2023-03-04T16:46:28;98200.28;;;6.92;53.95
34983;BME280;21187;50.976;13.720;2023-03-04T16:51:33;98205.19;;;6.90;54.06
34983;BME280;21187;50.976;13.720;2023-03-04T16:56:36;98199.53;;;6.82;54.29
34983;BME280;21187;50.976;13.720;2023-03-04T17:01:38;98202.44;;;6.69;54.58
34983;BME280;21187;50.976;13.720;2023-03-04T17:06:40;98198.06;;;6.46;54.91
34983;BME280;21187;50.976;13.720;2023-03-04T17:11:42;98204.28;;;6.38;55.48
34983;BME280;21187;50.976;13.720;2023-03-04T17:16:44;98200.81;;;6.29;55.72
34983;BME280;21187;50.976;13.720;2023-03-04T17:21:46;98211.59;;;6.29;55.75
34983;BME280;21187;50.976;13.720;2023-03-04T17:26:47;98203.69;;;6.24;56.16
34983;BME280;21187;50.976;13.720;2023-03-04T17:31:49;98222.03;;;6.22;56.16
34983;BME280;21187;50.976;13.720;2023-03-04T17:36:51;98215.56;;;6.14;56.36
34983;BME280;21187;50.976;13.720;2023-03-04T17:41:53;98231.38;;;6.15;56.63
34983;BME280;21187;50.976;13.720;2023-03-04T17:46:55;98228.03;;;6.19;56.35
34983;BME280;21187;50.976;13.720;2023-03-04T17:51:58;98236.44;;;6.17;56.14
34983;BME280;21187;50.976;13.720;2023-03-04T17:57:00;98229.34;;;6.12;56.41
34983;BME280;21187;50.976;13.720;2023-03-04T18:02:03;98223.97;;;6.12;56.24
34983;BME280;21187;50.976;13.720;2023-03-04T18:07:05;98221.72;;;6.14;55.84
34983;BME280;21187;50.976;13.720;2023-03-04T18:12:06;98228.03;;;6.19;55.72
34983;BME280;21187;50.976;13.720;2023-03-04T18:17:08;98231.06;;;6.08;55.69
34983;BME280;21187;50.976;13.720;2023-03-04T18:22:10;98228.84;;;6.02;55.85
34983;BME280;21187;50.976;13.720;2023-03-04T18:27:12;98225.88;;;6.03;55.77
34983;BME280;21187;50.976;13.720;2023-03-04T18:32:14;98234.88;;;5.98;55.69
34983;BME280;21187;50.976;13.720;2023-03-04T18:37:16;98220.13;;;5.87;56.23
34983;BME280;21187;50.976;13.720;2023-03-04T18:42:18;98223.78;;;5.91;56.33
34983;BME280;21187;50.976;13.720;2023-03-04T18:47:20;98225.69;;;5.91;56.19
34983;BME280;21187;50.976;13.720;2023-03-04T18:57:59;98232.00;;;5.95;56.30
34983;BME280;21187;50.976;13.720;2023-03-04T19:03:06;98226.63;;;5.95;56.34
34983;BME280;21187;50.976;13.720;2023-03-04T19:08:09;98236.75;;;5.80;56.33
34983;BME280;21187;50.976;13.720;2023-03-04T19:13:11;98236.88;;;5.75;56.52
34983;BME280;21187;50.976;13.720;2023-03-04T19:18:13;98228.22;;;5.78;56.31
34983;BME280;21187;50.976;13.720;2023-03-04T19:23:16;98223.16;;;5.86;56.17
34983;BME280;21187;50.976;13.720;2023-03-04T19:28:18;98236.91;;;5.84;56.46
34983;BME280;21187;50.976;13.720;2023-03-04T19:33:20;98235.00;;;5.84;56.48
34983;BME280;21187;50.976;13.720;2023-03-04T19:38:21;98237.22;;;5.82;56.30
34983;BME280;21187;50.976;13.720;2023-03-04T19:43:23;98227.13;;;5.79;56.47
34983;BME280;21187;50.976;13.720;2023-03-04T19:48:25;98240.38;;;5.84;56.26
34983;BME280;21187;50.976;13.720;2023-03-04T19:53:27;98238.16;;;5.87;56.16
34983;BME280;21187;50.976;13.720;2023-03-04T19:58:29;98237.69;;;5.67;56.79
34983;BME280;21187;50.976;13.720;2023-03-04T20:03:31;98232.75;;;5.52;57.00
34983;BME280;21187;50.976;13.720;2023-03-04T20:08:34;98244.78;;;5.45;57.40
34983;BME280;21187;50.976;13.720;2023-03-04T20:13:39;98242.88;;;5.46;56.94
34983;BME280;21187;50.976;13.720;2023-03-04T20:18:41;98242.72;;;5.42;57.45
34983;BME280;21187;50.976;13.720;2023-03-04T20:23:43;98251.09;;;5.32;57.33
34983;BME280;21187;50.976;13.720;2023-03-04T20:28:45;98248.06;;;5.33;57.37
34983;BME280;21187;50.976;13.720;2023-03-04T20:33:47;98248.69;;;5.30;57.56
34983;BME280;21187;50.976;13.720;2023-03-04T20:38:50;98246.47;;;5.15;58.31
34983;BME280;21187;50.976;13.720;2023-03-04T20:44:03;98245.97;;;5.13;58.82
34983;BME280;21187;50.976;13.720;2023-03-04T20:49:09;98241.53;;;5.08;58.89
34983;BME280;21187;50.976;13.720;2023-03-04T20:54:11;98241.09;;;5.15;58.75
34983;BME280;21187;50.976;13.720;2023-03-04T20:59:14;98233.03;;;5.24;58.23
34983;BME280;21187;50.976;13.720;2023-03-04T21:04:17;98234.03;;;5.28;57.77
34983;BME280;21187;50.976;13.720;2023-03-04T21:09:20;98233.03;;;5.24;58.09
34983;BME280;21187;50.976;13.720;2023-03-04T21:14:25;98232.72;;;5.16;57.84
34983;BME280;21187;50.976;13.720;2023-03-04T21:19:29;98230.94;;;5.12;58.53
34983;BME280;21187;50.976;13.720;2023-03-04T21:24:33;98231.41;;;5.05;58.28
34983;BME280;21187;50.976;13.720;2023-03-04T21:29:35;98225.09;;;5.01;58.55
34983;BME280;21187;50.976;13.720;2023-03-04T21:34:39;98231.91;;;5.07;58.49
34983;BME280;21187;50.976;13.720;2023-03-04T21:39:42;98232.22;;;5.14;58.40
34983;BME280;21187;50.976;13.720;2023-03-04T21:44:47;98229.53;;;5.14;57.95
34983;BME280;21187;50.976;13.720;2023-03-04T21:49:51;98217.66;;;5.07;58.06
34983;BME280;21187;50.976;13.720;2023-03-04T21:54:53;98213.09;;;5.07;58.33
34983;BME280;21187;50.976;13.720;2023-03-04T21:59:56;98215.78;;;5.07;58.07
34983;BME280;21187;50.976;13.720;2023-03-04T22:04:58;98210.56;;;5.02;57.81
34983;BME280;21187;50.976;13.720;2023-03-04T22:10:00;98208.66;;;4.94;57.65
34983;BME280;21187;50.976;13.720;2023-03-04T22:15:04;98205.97;;;4.94;57.53
34983;BME280;21187;50.976;13.720;2023-03-04T22:20:06;98206.56;;;4.91;57.66
34983;BME280;21187;50.976;13.720;2023-03-04T22:25:08;98196.34;;;4.93;57.92
34983;BME280;21187;50.976;13.720;2023-03-04T22:30:10;98186.88;;;4.95;57.56
34983;BME280;21187;50.976;13.720;2023-03-04T22:35:16;98191.28;;;5.00;57.68
34983;BME280;21187;50.976;13.720;2023-03-04T22:40:18;98189.72;;;4.99;57.54
34983;BME280;21187;50.976;13.720;2023-03-04T22:45:20;98185.13;;;4.99;57.19
34983;BME280;21187;50.976;13.720;2023-03-04T22:50:22;98181.19;;;4.97;57.36
34983;BME280;21187;50.976;13.720;2023-03-04T22:55:24;98186.84;;;4.87;57.80
34983;BME280;21187;50.976;13.720;2023-03-04T23:00:27;98184.47;;;4.85;57.76
34983;BME280;21187;50.976;13.720;2023-03-04T23:05:30;98185.44;;;4.89;57.33
34983;BME280;21187;50.976;13.720;2023-03-04T23:10:31;98178.94;;;4.81;57.78
34983;BME280;21187;50.976;13.720;2023-03-04T23:15:33;98179.72;;;4.82;57.20
34983;BME280;21187;50.976;13.720;2023-03-04T23:20:35;98176.38;;;4.76;57.74
34983;BME280;21187;50.976;13.720;2023-03-04T23:25:39;98172.75;;;4.72;57.74
34983;BME280;21187;50.976;13.720;2023-03-04T23:30:41;98173.22;;;4.74;57.37
34983;BME280;21187;50.976;13.720;2023-03-04T23:35:43;98165.97;;;4.75;56.96
34983;BME280;21187;50.976;13.720;2023-03-04T23:40:45;98160.59;;;4.66;57.42
34983;BME280;21187;50.976;13.720;2023-03-04T23:45:47;98161.19;;;4.63;57.16
34983;BME280;21187;50.976;13.720;2023-03-04T23:50:52;98160.72;;;4.61;56.88
34983;BME280;21187;50.976;13.720;2023-03-04T23:55:54;98154.28;;;4.62;56.51
